createdAt,value
2022-08-17T00:01:04.244Z,15.13
2022-08-17T00:03:15.166Z,15.60
2022-08-17T00:05:26.206Z,16.33
2022-08-17T00:07:36.660Z,16.57
2022-08-17T00:09:45.436Z,15.40
2022-08-17T00:12:34.983Z,15.47
2022-08-17T00:14:23.703Z,15.20
2022-08-17T00:16:57.474Z,15.57
2022-08-17T00:19:08.288Z,15.70
2022-08-17T00:21:23.814Z,16.00
2022-08-17T00:23:36.934Z,15.30
2022-08-17T00:25:46.984Z,15.83
2022-08-17T00:27:56.169Z,16.27
2022-08-17T00:30:08.420Z,16.10
2022-08-17T00:33:14.624Z,15.53
2022-08-17T00:34:46.511Z,15.63
2022-08-17T00:36:55.405Z,15.00
2022-08-17T00:39:06.303Z,15.60
2022-08-17T00:41:17.718Z,15.03
2022-08-17T00:43:29.406Z,16.60
2022-08-17T00:45:38.512Z,15.80
2022-08-17T00:47:47.444Z,15.93
2022-08-17T00:49:56.128Z,15.93
2022-08-17T00:52:11.702Z,17.17
2022-08-17T00:54:24.623Z,16.77
2022-08-17T00:56:35.615Z,16.30
2022-08-17T00:58:44.682Z,15.73
2022-08-17T01:00:53.653Z,16.03
2022-08-17T01:03:03.636Z,16.70
2022-08-17T01:05:18.456Z,17.07
2022-08-17T01:07:28.725Z,16.77
2022-08-17T01:09:39.584Z,17.13
2022-08-17T01:11:52.627Z,17.63
2022-08-17T01:14:01.816Z,17.17
2022-08-17T01:16:17.238Z,17.77
2022-08-17T01:18:27.135Z,17.50
2022-08-17T01:20:48.129Z,17.53
2022-08-17T01:22:58.884Z,17.20
2022-08-17T01:25:10.494Z,16.90
2022-08-17T01:27:20.687Z,17.67
2022-08-17T01:29:31.212Z,16.50
2022-08-17T01:31:42.550Z,16.93
2022-08-17T01:33:51.341Z,17.70
2022-08-17T01:36:00.810Z,16.83
2022-08-17T01:38:11.427Z,17.60
2022-08-17T01:40:23.865Z,17.43
2022-08-17T01:42:35.134Z,16.20
2022-08-17T01:44:43.991Z,17.00
2022-08-17T01:46:53.222Z,16.63
2022-08-17T01:49:02.799Z,16.17
2022-08-17T01:51:11.794Z,16.47
2022-08-17T01:53:24.058Z,17.13
2022-08-17T01:55:34.631Z,16.83
2022-08-17T01:57:45.742Z,17.33
2022-08-17T01:59:54.674Z,17.67
2022-08-17T02:02:04.895Z,17.97
2022-08-17T02:04:14.342Z,16.90
2022-08-17T02:06:27.884Z,17.47
2022-08-17T02:09:01.957Z,17.53
2022-08-17T02:11:11.958Z,16.93
2022-08-17T02:13:21.411Z,17.77
2022-08-17T02:15:30.293Z,17.53
2022-08-17T02:17:40.666Z,17.77
2022-08-17T02:19:49.243Z,17.00
2022-08-17T02:21:57.851Z,18.23
2022-08-17T02:24:09.141Z,18.63
2022-08-17T02:26:24.026Z,17.47
2022-08-17T02:28:35.187Z,17.23
2022-08-17T02:30:59.722Z,16.90
2022-08-17T02:33:11.899Z,18.40
2022-08-17T02:35:22.650Z,18.37
2022-08-17T02:37:32.064Z,17.77
2022-08-17T02:39:42.780Z,18.33
2022-08-17T02:41:51.570Z,19.23
2022-08-17T02:44:00.361Z,18.37
2022-08-17T02:46:09.200Z,19.50
2022-08-17T02:48:30.884Z,18.10
2022-08-17T02:50:40.483Z,18.07
2022-08-17T02:53:01.473Z,18.07
2022-08-17T02:55:14.272Z,18.90
2022-08-17T02:57:23.320Z,18.27
2022-08-17T02:59:33.153Z,18.50
2022-08-17T03:01:42.212Z,19.53
2022-08-17T03:03:51.769Z,18.83
2022-08-17T03:06:00.508Z,17.83
2022-08-17T03:08:12.940Z,18.40
2022-08-17T03:10:25.164Z,17.43
2022-08-17T03:12:35.138Z,18.37
2022-08-17T03:14:44.927Z,17.20
2022-08-17T03:16:53.844Z,17.13
2022-08-17T03:19:03.254Z,17.13
2022-08-17T03:21:13.906Z,17.77
2022-08-17T03:23:24.187Z,18.83
2022-08-17T03:25:39.534Z,18.00
2022-08-17T03:27:48.374Z,18.83
2022-08-17T03:30:00.574Z,18.37
2022-08-17T03:32:13.350Z,19.10
2022-08-17T03:34:22.503Z,18.67
2022-08-17T03:36:31.571Z,18.57
2022-08-17T03:38:45.095Z,18.57
2022-08-17T03:40:59.489Z,19.17
2022-08-17T03:43:10.839Z,19.43
2022-08-17T03:45:41.508Z,18.63
2022-08-17T03:48:08.855Z,17.97
2022-08-17T03:50:35.888Z,19.10
2022-08-17T03:53:02.267Z,19.90
2022-08-17T03:55:32.923Z,19.83
2022-08-17T03:57:46.765Z,20.37
2022-08-17T03:59:55.786Z,19.77
2022-08-17T04:02:10.568Z,21.37
2022-08-17T04:04:19.411Z,20.60
2022-08-17T04:06:36.552Z,21.90
2022-08-17T04:08:45.681Z,21.30
2022-08-17T04:10:54.913Z,21.03
2022-08-17T04:13:05.856Z,21.40
2022-08-17T04:15:15.193Z,21.97
2022-08-17T04:17:25.071Z,20.50
2022-08-17T04:19:34.027Z,21.73
2022-08-17T04:21:42.847Z,22.10
2022-08-17T04:23:51.584Z,22.03
2022-08-17T04:26:00.854Z,21.87
2022-08-17T04:28:16.047Z,21.83
2022-08-17T04:30:25.435Z,21.30
2022-08-17T04:33:04.734Z,21.13
2022-08-17T04:35:03.547Z,20.43
2022-08-17T04:37:12.226Z,20.67
2022-08-17T04:39:21.497Z,22.13
2022-08-17T04:41:47.815Z,22.07
2022-08-17T04:43:58.747Z,21.67
2022-08-17T04:46:08.831Z,21.10
2022-08-17T04:48:17.586Z,21.53
2022-08-17T04:50:26.655Z,20.73
2022-08-17T04:52:47.217Z,21.37
2022-08-17T04:54:55.912Z,20.70
2022-08-17T04:57:04.846Z,21.97
2022-08-17T04:59:16.427Z,21.70
2022-08-17T05:01:26.608Z,22.93
2022-08-17T05:03:35.686Z,22.33
2022-08-17T05:05:49.908Z,22.33
2022-08-17T05:07:59.725Z,23.57
2022-08-17T05:10:09.163Z,22.80
2022-08-17T05:12:18.436Z,23.47
2022-08-17T05:14:33.461Z,22.93
2022-08-17T05:16:42.808Z,22.77
2022-08-17T05:18:52.539Z,22.97
2022-08-17T05:21:01.806Z,21.60
2022-08-17T05:23:12.286Z,23.43
2022-08-17T05:25:23.940Z,23.07
2022-08-17T05:27:36.042Z,23.50
2022-08-17T05:29:46.520Z,23.23
2022-08-17T05:31:55.647Z,23.77
2022-08-17T05:34:04.461Z,24.33
2022-08-17T05:36:42.798Z,21.83
2022-08-17T05:38:44.011Z,23.50
2022-08-17T05:40:52.710Z,23.77
2022-08-17T05:43:09.272Z,24.50
2022-08-17T05:45:55.931Z,24.63
2022-08-17T05:47:53.812Z,23.13
2022-08-17T05:50:04.052Z,24.03
2022-08-17T05:52:23.711Z,24.97
2022-08-17T05:54:39.771Z,23.40
2022-08-17T05:56:57.639Z,25.07
2022-08-17T05:59:11.584Z,23.43
2022-08-17T06:01:27.751Z,23.10
2022-08-17T06:03:42.265Z,22.60
2022-08-17T06:05:54.988Z,23.80
2022-08-17T06:08:11.243Z,23.77
2022-08-17T06:10:22.904Z,23.57
2022-08-17T06:12:38.664Z,23.73
2022-08-17T06:14:55.602Z,23.67
2022-08-17T06:17:10.413Z,23.93
2022-08-17T06:19:22.122Z,21.83
2022-08-17T06:21:35.298Z,23.30
2022-08-17T06:23:45.585Z,22.67
2022-08-17T06:25:55.853Z,22.13
2022-08-17T06:28:05.966Z,22.00
2022-08-17T06:30:16.101Z,22.30
2022-08-17T06:32:26.848Z,22.03
2022-08-17T06:34:35.524Z,21.97
2022-08-17T06:36:50.898Z,21.57
2022-08-17T06:39:06.011Z,22.00
2022-08-17T06:41:20.099Z,21.97
2022-08-17T06:43:33.859Z,20.90
2022-08-17T06:45:49.613Z,21.93
2022-08-17T06:48:03.683Z,20.67
2022-08-17T06:50:16.616Z,21.23
2022-08-17T06:52:45.683Z,21.77
2022-08-17T06:54:59.646Z,20.30
2022-08-17T06:57:15.001Z,21.07
2022-08-17T06:59:26.436Z,21.07
2022-08-17T07:01:56.854Z,19.83
2022-08-17T07:04:11.551Z,20.00
2022-08-17T07:06:21.654Z,20.73
2022-08-17T07:08:35.350Z,20.13
2022-08-17T07:10:47.019Z,20.03
2022-08-17T07:12:57.433Z,20.03
2022-08-17T07:15:10.887Z,20.53
2022-08-17T07:17:20.899Z,20.97
2022-08-17T07:19:34.007Z,19.93
2022-08-17T07:21:47.298Z,21.07
2022-08-17T07:24:05.466Z,20.43
2022-08-17T07:26:16.664Z,20.13
2022-08-17T07:28:25.763Z,19.03
2022-08-17T07:30:45.865Z,20.63
2022-08-17T07:32:58.879Z,20.03
2022-08-17T07:35:17.481Z,20.37
2022-08-17T07:37:32.478Z,20.97
2022-08-17T07:40:15.515Z,19.43
2022-08-17T07:42:12.789Z,20.13
2022-08-17T07:44:21.659Z,19.97
2022-08-17T07:46:51.267Z,20.57
2022-08-17T07:49:18.155Z,19.87
2022-08-17T07:51:30.013Z,19.83
2022-08-17T07:53:39.256Z,19.33
2022-08-17T07:55:49.002Z,19.30
2022-08-17T07:57:58.973Z,19.17
2022-08-17T08:00:16.981Z,18.07
2022-08-17T08:02:33.720Z,18.47
2022-08-17T08:04:59.726Z,18.13
2022-08-17T08:07:27.423Z,18.83
2022-08-17T08:09:41.182Z,18.43
2022-08-17T08:11:49.871Z,18.23
2022-08-17T08:14:18.868Z,19.10
2022-08-17T08:16:29.711Z,17.87
2022-08-17T08:18:55.302Z,17.73
2022-08-17T08:21:09.723Z,18.30
2022-08-17T08:23:22.302Z,17.97
2022-08-17T08:25:40.014Z,17.70
2022-08-17T08:27:57.428Z,16.77
2022-08-17T08:30:08.946Z,17.63
2022-08-17T08:32:23.848Z,17.87
2022-08-17T08:35:00.688Z,18.07
2022-08-17T08:37:19.129Z,16.80
2022-08-17T08:39:38.966Z,16.67
2022-08-17T08:41:53.374Z,16.63
2022-08-17T08:44:07.313Z,16.37
2022-08-17T08:46:24.175Z,16.13
2022-08-17T08:48:53.068Z,15.70
2022-08-17T08:51:11.978Z,16.53
2022-08-17T08:53:28.389Z,17.37
2022-08-17T08:55:47.180Z,16.07
2022-08-17T08:57:58.208Z,15.90
2022-08-17T09:00:12.976Z,15.67
2022-08-17T09:02:34.873Z,15.77
2022-08-17T09:05:13.421Z,14.63
2022-08-17T09:07:27.126Z,14.77
2022-08-17T09:09:40.972Z,15.00
2022-08-17T09:12:01.511Z,14.70
2022-08-17T09:14:21.219Z,14.67
2022-08-17T09:16:35.085Z,15.03
2022-08-17T09:19:02.609Z,15.93
2022-08-17T09:21:18.288Z,13.60
2022-08-17T09:23:33.995Z,13.70
2022-08-17T09:25:49.956Z,14.00
2022-08-17T09:28:03.867Z,13.93
2022-08-17T09:30:14.553Z,12.17
2022-08-17T09:32:27.445Z,12.97
2022-08-17T09:34:39.830Z,13.93
2022-08-17T09:36:54.635Z,13.77
2022-08-17T09:39:04.789Z,14.97
2022-08-17T09:41:18.683Z,15.43
2022-08-17T09:43:37.497Z,14.87
2022-08-17T09:45:50.807Z,15.00
2022-08-17T09:48:05.031Z,14.10
2022-08-17T09:50:17.179Z,14.63
2022-08-17T09:52:26.805Z,14.90
2022-08-17T09:54:40.180Z,15.70
2022-08-17T09:57:11.893Z,14.93
2022-08-17T09:59:34.233Z,15.03
2022-08-17T10:01:51.629Z,15.00
2022-08-17T10:04:09.040Z,15.37
2022-08-17T10:06:23.130Z,14.77
2022-08-17T10:08:37.234Z,14.90
2022-08-17T10:10:52.377Z,14.80
2022-08-17T10:13:09.512Z,13.77
2022-08-17T10:15:27.654Z,12.17
2022-08-17T10:17:40.742Z,13.37
2022-08-17T10:19:55.480Z,14.77
2022-08-17T10:22:34.522Z,14.07
2022-08-17T10:25:22.793Z,14.37
2022-08-17T10:27:36.406Z,13.93
2022-08-17T10:29:49.932Z,13.93
2022-08-17T10:32:05.171Z,13.77
2022-08-17T10:34:23.059Z,13.40
2022-08-17T10:36:38.662Z,13.40
2022-08-17T10:38:48.331Z,12.93
2022-08-17T10:41:00.307Z,12.93
2022-08-17T10:43:20.333Z,12.53
2022-08-17T10:45:36.406Z,12.80
2022-08-17T10:48:23.487Z,12.80
2022-08-17T10:50:48.187Z,12.60
2022-08-17T10:52:57.262Z,12.47
2022-08-17T10:55:14.211Z,12.33
2022-08-17T10:57:36.659Z,12.03
2022-08-17T10:59:56.036Z,12.67
2022-08-17T11:02:15.995Z,12.50
2022-08-17T11:04:29.214Z,12.57
2022-08-17T11:07:02.114Z,12.50
2022-08-17T11:09:27.637Z,12.77
2022-08-17T11:11:54.521Z,13.03
2022-08-17T11:14:14.055Z,12.70
2022-08-17T11:16:30.950Z,13.17
2022-08-17T11:18:55.114Z,12.37
2022-08-17T11:21:25.483Z,13.00
2022-08-17T11:23:45.652Z,12.33
2022-08-17T11:25:55.728Z,13.57
2022-08-17T11:28:09.538Z,13.03
2022-08-17T11:30:39.525Z,12.77
2022-08-17T11:32:54.583Z,13.50
2022-08-17T11:35:31.184Z,13.30
2022-08-17T11:37:47.783Z,12.57
2022-08-17T11:40:11.665Z,13.23
2022-08-17T11:42:29.728Z,12.77
2022-08-17T11:44:44.356Z,12.63
2022-08-17T11:47:15.418Z,12.33
2022-08-17T11:49:45.150Z,12.47
2022-08-17T11:52:11.772Z,12.50
2022-08-17T11:54:37.173Z,12.27
2022-08-17T11:56:48.905Z,12.10
2022-08-17T11:58:58.716Z,12.67
2022-08-17T12:01:07.883Z,12.20
2022-08-17T12:03:27.760Z,12.93
2022-08-17T12:05:36.799Z,11.80
2022-08-17T12:07:47.754Z,9.63
2022-08-17T12:09:57.494Z,10.40
2022-08-17T12:12:14.198Z,9.90
2022-08-17T12:14:44.990Z,10.20
2022-08-17T12:17:02.686Z,9.07
2022-08-17T12:19:20.126Z,9.37
2022-08-17T12:21:38.028Z,9.20
2022-08-17T12:23:52.559Z,8.90
2022-08-17T12:26:05.049Z,8.00
2022-08-17T12:28:23.207Z,8.70
2022-08-17T12:30:32.878Z,8.63
2022-08-17T12:32:42.835Z,8.77
2022-08-17T12:34:52.683Z,8.43
2022-08-17T12:37:03.344Z,8.97
2022-08-17T12:39:14.866Z,9.37
2022-08-17T12:41:39.168Z,8.90
2022-08-17T12:44:02.704Z,9.10
2022-08-17T12:46:19.431Z,8.77
2022-08-17T12:48:29.193Z,8.60
2022-08-17T12:50:38.844Z,9.13
2022-08-17T12:52:48.040Z,7.97
2022-08-17T12:54:59.693Z,8.10
2022-08-17T12:57:13.779Z,8.33
2022-08-17T12:59:29.969Z,8.60
2022-08-17T13:01:43.219Z,8.63
2022-08-17T13:03:53.167Z,8.63
2022-08-17T13:06:02.867Z,9.20
2022-08-17T13:08:16.704Z,8.70
2022-08-17T13:10:32.453Z,8.57
2022-08-17T13:12:41.650Z,8.23
2022-08-17T13:14:52.238Z,8.03
2022-08-17T13:17:06.327Z,8.70
2022-08-17T13:19:39.685Z,9.40
2022-08-17T13:21:50.826Z,9.00
2022-08-17T13:24:00.651Z,8.70
2022-08-17T13:26:11.871Z,9.00
2022-08-17T13:28:30.654Z,9.30
2022-08-17T13:30:47.911Z,9.73
2022-08-17T13:32:59.688Z,10.13
2022-08-17T13:35:38.986Z,9.27
2022-08-17T13:37:58.597Z,9.60
2022-08-17T13:40:22.476Z,9.40
2022-08-17T13:42:32.405Z,9.67
2022-08-17T13:44:41.746Z,10.13
2022-08-17T13:46:57.086Z,9.93
2022-08-17T13:49:08.013Z,9.80
2022-08-17T13:51:27.875Z,9.90
2022-08-17T13:53:54.184Z,10.03
2022-08-17T13:56:04.265Z,10.00
2022-08-17T13:58:13.282Z,10.53
2022-08-17T14:00:30.972Z,10.40
2022-08-17T14:02:41.669Z,10.70
2022-08-17T14:04:50.452Z,9.97
2022-08-17T14:07:03.064Z,9.80
2022-08-17T14:09:12.431Z,9.97
2022-08-17T14:11:24.289Z,9.87
2022-08-17T14:13:33.026Z,10.10
2022-08-17T14:15:56.090Z,9.73
2022-08-17T14:18:08.903Z,9.73
2022-08-17T14:20:22.453Z,9.33
2022-08-17T14:22:32.248Z,9.27
2022-08-17T14:24:44.888Z,9.97
2022-08-17T14:26:54.369Z,9.63
2022-08-17T14:29:15.069Z,9.67
2022-08-17T14:31:25.178Z,10.27
2022-08-17T14:33:36.293Z,10.67
2022-08-17T14:35:45.783Z,13.40
2022-08-17T14:37:55.802Z,14.73
2022-08-17T14:40:07.243Z,15.03
2022-08-17T14:42:16.511Z,13.90
2022-08-17T14:44:25.894Z,15.43
2022-08-17T14:46:35.288Z,15.30
2022-08-17T14:48:46.809Z,14.63
2022-08-17T14:50:56.738Z,16.67
2022-08-17T14:53:06.516Z,16.50
2022-08-17T14:55:18.430Z,15.43
2022-08-17T14:57:34.089Z,14.67
2022-08-17T14:59:43.255Z,11.03
2022-08-17T15:01:52.813Z,10.50
2022-08-17T15:04:04.177Z,11.53
2022-08-17T15:06:18.332Z,11.90
2022-08-17T15:08:26.904Z,12.57
2022-08-17T15:10:36.071Z,12.07
2022-08-17T15:12:44.593Z,12.80
2022-08-17T15:14:53.089Z,13.03
2022-08-17T15:17:01.568Z,13.23
2022-08-17T15:19:11.534Z,13.43
2022-08-17T15:21:20.188Z,12.80
2022-08-17T15:23:28.722Z,13.40
2022-08-17T15:25:37.424Z,13.43
2022-08-17T15:27:49.088Z,13.17
2022-08-17T15:29:58.005Z,14.60
2022-08-17T15:32:06.703Z,15.10
2022-08-17T15:34:20.961Z,14.07
2022-08-17T15:36:29.580Z,14.20
2022-08-17T15:38:40.384Z,14.53
2022-08-17T15:40:49.869Z,15.07
2022-08-17T15:42:59.177Z,15.47
2022-08-17T15:45:08.499Z,13.53
2022-08-17T15:47:17.870Z,13.77
2022-08-17T15:49:30.287Z,13.70
2022-08-17T15:51:38.832Z,11.97
2022-08-17T15:53:48.297Z,12.30
2022-08-17T15:55:56.757Z,11.30
2022-08-17T15:58:05.406Z,11.40
2022-08-17T16:00:16.222Z,11.23
2022-08-17T16:03:14.688Z,11.37
2022-08-17T16:04:57.443Z,10.80
2022-08-17T16:07:06.227Z,11.33
2022-08-17T16:09:15.159Z,11.63
2022-08-17T16:11:23.889Z,11.20
2022-08-17T16:13:32.775Z,11.40
2022-08-17T16:15:41.342Z,11.30
2022-08-17T16:17:52.577Z,11.40
2022-08-17T16:20:02.781Z,12.07
2022-08-17T16:22:12.460Z,12.10
2022-08-17T16:24:20.903Z,11.13
2022-08-17T16:26:30.399Z,12.87
2022-08-17T16:28:40.878Z,11.93
2022-08-17T16:30:49.401Z,11.70
2022-08-17T16:32:58.899Z,11.77
2022-08-17T16:35:11.989Z,12.13
2022-08-17T16:37:20.548Z,11.77
2022-08-17T16:39:30.860Z,11.60
2022-08-17T16:41:45.668Z,11.27
2022-08-17T16:43:54.130Z,12.03
2022-08-17T16:46:02.781Z,11.50
2022-08-17T16:48:11.907Z,12.63
2022-08-17T16:50:23.178Z,12.17
2022-08-17T16:52:33.609Z,11.93
2022-08-17T16:54:44.249Z,11.43
2022-08-17T16:56:53.280Z,10.80
2022-08-17T16:59:30.009Z,11.70
2022-08-17T17:01:31.039Z,12.80
2022-08-17T17:03:43.950Z,12.23
2022-08-17T17:06:03.837Z,11.67
2022-08-17T17:08:16.050Z,12.10
2022-08-17T17:10:26.454Z,11.83
2022-08-17T17:13:01.429Z,10.83
2022-08-17T17:15:03.720Z,12.13
2022-08-17T17:17:14.994Z,11.10
2022-08-17T17:19:35.057Z,12.17
2022-08-17T17:21:49.322Z,11.67
2022-08-17T17:23:59.769Z,11.70
2022-08-17T17:26:13.557Z,12.07
2022-08-17T17:28:25.074Z,12.50
2022-08-17T17:30:37.122Z,12.10
2022-08-17T17:32:47.994Z,11.70
2022-08-17T17:34:58.784Z,11.93
2022-08-17T17:37:12.412Z,12.20
2022-08-17T17:39:24.913Z,11.97
2022-08-17T17:41:35.524Z,12.60
2022-08-17T17:43:44.251Z,12.20
2022-08-17T17:45:54.875Z,12.97
2022-08-17T17:48:03.568Z,12.80
2022-08-17T17:50:12.478Z,12.17
2022-08-17T17:52:26.100Z,12.47
2022-08-17T17:54:50.885Z,12.90
2022-08-17T17:57:02.093Z,12.67
2022-08-17T17:59:14.093Z,12.83
2022-08-17T18:01:27.434Z,12.73
2022-08-17T18:03:42.449Z,13.77
2022-08-17T18:05:56.711Z,13.67
2022-08-17T18:08:10.983Z,14.13
2022-08-17T18:10:30.265Z,13.53
2022-08-17T18:12:43.764Z,13.80
2022-08-17T18:15:01.190Z,13.60
2022-08-17T18:17:09.698Z,14.70
2022-08-17T18:19:20.825Z,13.80
2022-08-17T18:21:34.393Z,14.80
2022-08-17T18:23:51.004Z,15.03
2022-08-17T18:26:01.336Z,15.90
2022-08-17T18:28:10.505Z,15.33
2022-08-17T18:30:27.356Z,15.17
2022-08-17T18:32:37.093Z,15.13
2022-08-17T18:34:48.041Z,15.30
2022-08-17T18:36:57.199Z,16.03
2022-08-17T18:39:16.115Z,16.27
2022-08-17T18:41:30.452Z,14.77
2022-08-17T18:43:43.929Z,15.37
2022-08-17T18:46:28.417Z,16.03
2022-08-17T18:48:51.162Z,16.47
2022-08-17T18:51:00.702Z,16.67
2022-08-17T18:53:34.002Z,15.90
2022-08-17T18:55:44.287Z,16.67
2022-08-17T18:57:54.485Z,16.67
2022-08-17T19:00:03.171Z,17.30
2022-08-17T19:02:43.340Z,16.67
2022-08-17T19:05:00.601Z,17.50
2022-08-17T19:07:12.274Z,17.17
2022-08-17T19:09:32.362Z,17.60
2022-08-17T19:11:42.307Z,17.13
2022-08-17T19:13:54.381Z,17.90
2022-08-17T19:16:14.262Z,17.57
2022-08-17T19:18:25.823Z,17.70
2022-08-17T19:20:37.693Z,17.13
2022-08-17T19:22:56.616Z,18.07
2022-08-17T19:25:16.147Z,17.63
2022-08-17T19:27:34.671Z,17.97
2022-08-17T19:29:53.975Z,17.87
2022-08-17T19:32:02.666Z,18.10
2022-08-17T19:34:12.038Z,18.30
2022-08-17T19:36:30.459Z,19.77
2022-08-17T19:38:43.250Z,18.67
2022-08-17T19:40:59.212Z,19.50
2022-08-17T19:43:16.571Z,18.07
2022-08-17T19:45:32.727Z,18.80
2022-08-17T19:47:55.173Z,19.83
2022-08-17T19:50:10.369Z,18.77
2022-08-17T19:52:24.704Z,19.37
2022-08-17T19:54:36.329Z,19.53
2022-08-17T19:56:49.022Z,19.87
2022-08-17T19:59:02.230Z,20.77
2022-08-17T20:01:13.629Z,20.17
2022-08-17T20:03:24.915Z,20.40
2022-08-17T20:05:54.684Z,20.23
2022-08-17T20:08:06.796Z,19.57
2022-08-17T20:10:18.156Z,19.67
2022-08-17T20:12:29.553Z,20.37
2022-08-17T20:14:53.563Z,19.70
2022-08-17T20:17:04.487Z,20.03
2022-08-17T20:19:18.990Z,19.97
2022-08-17T20:21:30.245Z,20.00
2022-08-17T20:23:42.521Z,20.57
2022-08-17T20:25:55.494Z,20.60
2022-08-17T20:28:07.039Z,21.90
2022-08-17T20:30:33.612Z,19.20
2022-08-17T20:32:52.638Z,19.47
2022-08-17T20:35:10.378Z,20.83
2022-08-17T20:37:29.921Z,21.20
2022-08-17T20:39:41.256Z,21.47
2022-08-17T20:42:05.647Z,21.80
2022-08-17T20:44:26.751Z,22.47
2022-08-17T20:46:46.825Z,21.43
2022-08-17T20:48:57.736Z,22.87
2022-08-17T20:51:27.352Z,22.03
2022-08-17T20:53:54.618Z,22.50
2022-08-17T20:56:03.102Z,22.40
2022-08-17T20:58:31.151Z,21.80
2022-08-17T21:00:45.031Z,21.67
2022-08-17T21:03:15.270Z,21.50
2022-08-17T21:05:34.377Z,22.37
2022-08-17T21:07:54.115Z,21.10
2022-08-17T21:10:13.927Z,22.90
2022-08-17T21:12:37.296Z,21.10
2022-08-17T21:14:59.779Z,22.03
2022-08-17T21:17:29.658Z,21.93
2022-08-17T21:20:09.823Z,22.37
2022-08-17T21:22:20.878Z,22.90
2022-08-17T21:24:34.713Z,22.17
2022-08-17T21:26:50.669Z,23.93
2022-08-17T21:29:31.086Z,23.03
2022-08-17T21:31:38.490Z,22.93
2022-08-17T21:34:07.438Z,22.40
2022-08-17T21:36:28.162Z,22.60
2022-08-17T21:38:38.182Z,22.67
2022-08-17T21:40:50.098Z,23.17
2022-08-17T21:43:00.751Z,22.83
2022-08-17T21:45:11.628Z,24.90
2022-08-17T21:47:24.262Z,25.00
2022-08-17T21:49:37.877Z,25.07
2022-08-17T21:51:50.025Z,24.30
2022-08-17T21:54:00.091Z,24.40
2022-08-17T21:56:09.083Z,25.03
2022-08-17T21:58:24.542Z,24.20
2022-08-17T22:00:33.905Z,24.27
2022-08-17T22:02:42.981Z,24.53
2022-08-17T22:04:58.645Z,25.57
2022-08-17T22:07:10.016Z,24.90
2022-08-17T22:09:22.391Z,25.23
2022-08-17T22:11:31.611Z,23.80
2022-08-17T22:13:40.120Z,24.90
2022-08-17T22:15:50.454Z,24.07
2022-08-17T22:18:02.182Z,23.57
2022-08-17T22:20:14.539Z,23.90
2022-08-17T22:22:27.473Z,23.77
2022-08-17T22:24:34.935Z,23.17
2022-08-17T22:27:00.812Z,23.83
2022-08-17T22:29:30.173Z,22.60
2022-08-17T22:31:57.038Z,23.17
2022-08-17T22:34:12.359Z,22.23
2022-08-17T22:36:29.060Z,22.47
2022-08-17T22:38:39.502Z,23.10
2022-08-17T22:40:50.797Z,22.93
2022-08-17T22:43:02.462Z,23.40
2022-08-17T22:45:11.731Z,22.50
2022-08-17T22:47:32.487Z,23.23
2022-08-17T22:49:53.382Z,21.60
2022-08-17T22:52:20.202Z,21.47
2022-08-17T22:54:48.368Z,21.47
2022-08-17T22:57:18.749Z,21.60
2022-08-17T22:59:36.630Z,21.47
2022-08-17T23:01:46.616Z,21.90
2022-08-17T23:03:56.344Z,23.93
2022-08-17T23:06:06.908Z,24.03
2022-08-17T23:08:15.531Z,23.37
2022-08-17T23:10:25.528Z,23.47
2022-08-17T23:12:39.695Z,23.87
2022-08-17T23:14:51.396Z,22.00
2022-08-17T23:17:00.712Z,21.67
2022-08-17T23:19:09.945Z,20.77
2022-08-17T23:21:27.116Z,20.50
2022-08-17T23:23:37.119Z,23.50
2022-08-17T23:25:47.360Z,23.40
2022-08-17T23:27:55.970Z,22.77
2022-08-17T23:30:04.601Z,22.57
2022-08-17T23:32:14.829Z,23.67
2022-08-17T23:34:23.852Z,22.20
2022-08-17T23:36:32.485Z,23.07
2022-08-17T23:38:44.506Z,22.83
2022-08-17T23:40:54.427Z,22.43
2022-08-17T23:43:06.000Z,22.60
2022-08-17T23:45:33.282Z,23.17
2022-08-17T23:47:42.357Z,21.20
2022-08-17T23:49:54.210Z,21.93
2022-08-17T23:52:12.627Z,22.83
2022-08-17T23:54:24.837Z,22.60
2022-08-17T23:56:41.832Z,22.53
2022-08-17T23:58:50.290Z,21.53
